Time;durP1;ratioP1;P1;durP2;ratioP2;P2;SDS_P1;SDS_P2;PMS_P1;PMS_P2;Temp;Humidity;BMP_temperature;BMP_pressure;BME280_temperature;BME280_humidity;BME280_pressure;Samples;Min_cycle;Max_cycle;Signal;HPM_P1;HPM_P2
2022/11/10 00:01:22;;;;;;;;;;;;;;;;;;5079266;28;20013;-62
2022/11/10 00:03:47;;;;;;;;;;;;;;;;;;5063615;28;19913;-62
2022/11/10 00:06:12;;;;;;;;;;;;;;;;;;5077759;28;19912;-62
2022/11/10 00:08:37;;;;;;;;;;;;;;;;;;5077751;28;19970;-62
2022/11/10 00:11:05;;;;;;;;;;;;;;;;;;5064246;28;19916;-62
2022/11/10 00:13:30;;;;;;;;;;;;;;;;;;5064463;28;19919;-63
2022/11/10 00:18:39;;;;;;;;;;;;;;;;;;5052714;28;19976;-62
2022/11/10 00:21:04;;;;;;;;;;;;;;;;;;5058084;28;19934;-62
2022/11/10 00:23:29;;;;;;;;;;;;;;;;;;5066476;28;20283;-62
2022/11/10 00:25:54;;;;;;;;;;;;;;;;;;5072620;28;19908;-62
2022/11/10 00:28:19;;;;;;;;;;;;;;;;;;5068779;28;20361;-63
2022/11/10 00:30:44;;;;;;;;;;;;;;;;;;5056217;28;19917;-63
2022/11/10 00:33:09;;;;;;;;;;;;;;;;;;5067532;28;19916;-63
2022/11/10 00:35:35;;;;;;;;;;;;;;;;;;5071981;28;20335;-63
2022/11/10 00:38:00;;;;;;;;;;;;;;;;;;5056860;28;20432;-63
2022/11/10 00:40:25;;;;;;;;;;;;;;;;;;5076210;28;19916;-63
2022/11/10 00:42:51;;;;;;;;;;;;;;;;;;5068202;28;19952;-62
2022/11/10 00:45:16;;;;;;;;;;;;;;;;;;5072170;28;19912;-62
2022/11/10 00:47:42;;;;;;;;;;;;;;;;;;5068472;28;20334;-63
2022/11/10 00:50:07;;;;;;;;;;;;;;;;;;5071064;28;19917;-63
2022/11/10 00:52:32;;;;;;;;;;;;;;;;;;5065458;28;19916;-63
2022/11/10 00:54:57;;;;;;;;;;;;;;;;;;5071001;28;20003;-63
2022/11/10 00:57:22;;;;;;;;;;;;;;;;;;5077772;28;20050;-63
2022/11/10 00:59:47;;;;;;;;;;;;;;;;;;5070283;28;19979;-63
2022/11/10 01:02:13;;;;;;;;;;;;;;;;;;5076307;28;19923;-63
2022/11/10 01:04:38;;;;;;;;;;;;;;;;;;5071304;28;19912;-63
2022/11/10 01:07:03;;;;;;;;;;;;;;;;;;5079461;28;20304;-62
2022/11/10 01:09:28;;;;;;;;;;;;;;;;;;5063926;28;20336;-63
2022/11/10 01:11:53;;;;;;;;;;;;;;;;;;5088347;28;20353;-62
2022/11/10 01:14:18;;;;;;;;;;;;;;;;;;5070765;28;20376;-63
2022/11/10 01:16:43;;;;;;;;;;;;;;;;;;5080435;28;20003;-63
2022/11/10 01:19:09;;;;;;;;;;;;;;;;;;5080717;28;19912;-63
2022/11/10 01:21:34;;;;;;;;;;;;;;;;;;5071740;28;20288;-61
2022/11/10 01:23:59;;;;;;;;;;;;;;;;;;5076439;28;19960;-63
2022/11/10 01:26:24;;;;;;;;;;;;;;;;;;5073703;28;19920;-62
2022/11/10 01:28:49;;;;;;;;;;;;;;;;;;5079352;28;19916;-62
2022/11/10 01:31:14;;;;;;;;;;;;;;;;;;5071328;28;20598;-63
2022/11/10 01:33:39;;;;;;;;;;;;;;;;;;5081280;28;20349;-62
2022/11/10 01:36:05;;;;;;;;;;;;;;;;;;5103941;27;19958;-63
2022/11/10 01:38:30;;;;;;;;;;;;;;;;;;5075454;28;19913;-61
2022/11/10 01:40:55;;;;;;;;;;;;;;;;;;5066288;28;19985;-62
2022/11/10 01:43:20;;;;;;;;;;;;;;;;;;5071172;28;19916;-63
2022/11/10 01:45:45;;;;;;;;;;;;;;;;;;5080760;28;19913;-62
2022/11/10 01:48:10;;;;;;;;;;;;;;;;;;5073972;28;19958;-62
2022/11/10 01:50:35;;;;;;;;;;;;;;;;;;5074326;28;19912;-62
2022/11/10 01:53:01;;;;;;;;;;;;;;;;;;5074199;28;19913;-62
2022/11/10 01:55:26;;;;;;;;;;;;;;;;;;5068847;28;19960;-63
2022/11/10 01:57:51;;;;;;;;;;;;;;;;;;5069388;28;19958;-63
2022/11/10 02:00:16;;;;;;;;;;;;;;;;;;5065916;28;19913;-63
2022/11/10 02:02:41;;;;;;;;;;;;;;;;;;5073238;28;19916;-63
2022/11/10 02:05:07;;;;;;;;;;;;;;;;;;5067681;28;20400;-63
2022/11/10 02:07:32;;;;;;;;;;;;;;;;;;5069230;28;19912;-63
2022/11/10 02:09:57;;;;;;;;;;;;;;;;;;5072877;28;19935;-62
2022/11/10 02:12:35;;;;;;;;;;;;;;;;;;5063514;28;20254;-61
2022/11/10 02:15:00;;;;;;;;;;;;;;;;;;5074726;28;19908;-62
2022/11/10 02:17:25;;;;;;;;;;;;;;;;;;5066940;28;19918;-62
2022/11/10 02:19:51;;;;;;;;;;;;;;;;;;5091525;28;19934;-62
2022/11/10 02:22:16;;;;;;;;;;;;;;;;;;5072853;28;20563;-63
2022/11/10 02:24:41;;;;;;;;;;;;;;;;;;5072328;28;20383;-63
2022/11/10 02:27:06;;;;;;;;;;;;;;;;;;5072242;28;19913;-63
2022/11/10 02:29:31;;;;;;;;;;;;;;;;;;5073050;28;19917;-62
2022/11/10 02:31:56;;;;;;;;;;;;;;;;;;5069327;28;20348;-63
2022/11/10 02:34:21;;;;;;;;;;;;;;;;;;5068389;28;19965;-63
2022/11/10 02:36:46;;;;;;;;;;;;;;;;;;5080743;28;19916;-63
2022/11/10 02:39:12;;;;;;;;;;;;;;;;;;5085260;28;20416;-63
2022/11/10 02:41:37;;;;;;;;;;;;;;;;;;5066188;28;20331;-63
2022/11/10 02:44:02;;;;;;;;;;;;;;;;;;5070772;28;20018;-62
2022/11/10 02:46:27;;;;;;;;;;;;;;;;;;5072123;28;19919;-62
2022/11/10 02:48:52;;;;;;;;;;;;;;;;;;5059201;28;19928;-62
2022/11/10 02:51:17;;;;;;;;;;;;;;;;;;5073242;28;19939;-62
2022/11/10 02:53:42;;;;;;;;;;;;;;;;;;5069229;28;19919;-63
2022/11/10 02:56:08;;;;;;;;;;;;;;;;;;5072474;28;20186;-63
2022/11/10 02:58:33;;;;;;;;;;;;;;;;;;5070451;28;19971;-63
2022/11/10 03:00:58;;;;;;;;;;;;;;;;;;5074499;28;19919;-63
2022/11/10 03:03:23;;;;;;;;;;;;;;;;;;5072237;28;20253;-63
2022/11/10 03:05:48;;;;;;;;;;;;;;;;;;5085757;28;19917;-63
2022/11/10 03:08:13;;;;;;;;;;;;;;;;;;5070934;28;19912;-63
2022/11/10 03:10:38;;;;;;;;;;;;;;;;;;5072318;28;19913;-63
2022/11/10 03:13:04;;;;;;;;;;;;;;;;;;5084634;28;19912;-63
2022/11/10 03:15:29;;;;;;;;;;;;;;;;;;5078710;28;19912;-63
2022/11/10 03:17:54;;;;;;;;;;;;;;;;;;5078698;28;19908;-63
2022/11/10 03:20:19;;;;;;;;;;;;;;;;;;5078696;28;20506;-63
2022/11/10 03:22:44;;;;;;;;;;;;;;;;;;5069416;28;20412;-63
2022/11/10 03:25:10;;;;;;;;;;;;;;;;;;5071038;28;19913;-62
2022/11/10 03:27:35;;;;;;;;;;;;;;;;;;5079539;28;19917;-63
2022/11/10 03:30:00;;;;;;;;;;;;;;;;;;5070702;28;19920;-62
2022/11/10 03:32:25;;;;;;;;;;;;;;;;;;5076351;28;20368;-63
2022/11/10 03:34:50;;;;;;;;;;;;;;;;;;5071705;28;19940;-63
2022/11/10 03:37:15;;;;;;;;;;;;;;;;;;5075358;28;19916;-63
2022/11/10 03:39:40;;;;;;;;;;;;;;;;;;5065678;28;19913;-63
2022/11/10 03:42:06;;;;;;;;;;;;;;;;;;5065720;28;19994;-63
2022/11/10 03:44:31;;;;;;;;;;;;;;;;;;5071135;28;20393;-63
2022/11/10 03:46:56;;;;;;;;;;;;;;;;;;5081226;28;19912;-63
2022/11/10 03:49:21;;;;;;;;;;;;;;;;;;5080324;28;19968;-63
2022/11/10 03:51:46;;;;;;;;;;;;;;;;;;5068315;28;19919;-63
2022/11/10 03:54:11;;;;;;;;;;;;;;;;;;5064103;28;19920;-63
2022/11/10 03:56:36;;;;;;;;;;;;;;;;;;5080231;28;20456;-63
2022/11/10 03:59:02;;;;;;;;;;;;;;;;;;5072895;28;20038;-62
2022/11/10 04:01:27;;;;;;;;;;;;;;;;;;5071112;28;19912;-64
2022/11/10 04:03:52;;;;;;;;;;;;;;;;;;5078377;28;20387;-61
2022/11/10 04:09:01;;;;;;;;;;;;;;;;;;5062562;28;19963;-62
2022/11/10 04:16:54;;;;;;;;;;;;;;;;;;5071869;28;19919;-62
2022/11/10 04:19:19;;;;;;;;;;;;;;;;;;5071072;28;19916;-63
2022/11/10 04:21:44;;;;;;;;;;;;;;;;;;5070644;28;20276;-62
2022/11/10 04:24:09;;;;;;;;;;;;;;;;;;5077480;28;19956;-63
2022/11/10 04:26:37;;;;;;;;;;;;;;;;;;5068496;28;19912;-63
2022/11/10 04:29:02;;;;;;;;;;;;;;;;;;5067436;28;19921;-63
2022/11/10 04:31:28;;;;;;;;;;;;;;;;;;5073332;28;19958;-63
2022/11/10 04:33:53;;;;;;;;;;;;;;;;;;5068344;28;19917;-63
2022/11/10 04:36:18;;;;;;;;;;;;;;;;;;5071281;28;19913;-63
2022/11/10 04:38:43;;;;;;;;;;;;;;;;;;5078888;28;19919;-62
2022/11/10 04:41:08;;;;;;;;;;;;;;;;;;5101567;28;19920;-63
2022/11/10 04:43:33;;;;;;;;;;;;;;;;;;5067109;28;19928;-62
2022/11/10 04:45:58;;;;;;;;;;;;;;;;;;5066673;28;20003;-64
2022/11/10 04:48:24;;;;;;;;;;;;;;;;;;5072331;28;19908;-63
2022/11/10 04:50:49;;;;;;;;;;;;;;;;;;5060894;28;19917;-63
2022/11/10 04:53:14;;;;;;;;;;;;;;;;;;5052679;28;19909;-62
2022/11/10 04:55:39;;;;;;;;;;;;;;;;;;5069869;28;19935;-62
2022/11/10 04:58:05;;;;;;;;;;;;;;;;;;5069895;28;20011;-62
2022/11/10 05:00:30;;;;;;;;;;;;;;;;;;5069519;28;20001;-63
2022/11/10 05:02:55;;;;;;;;;;;;;;;;;;5069891;28;19919;-61
2022/11/10 05:05:20;;;;;;;;;;;;;;;;;;5068229;28;19916;-63
2022/11/10 05:07:45;;;;;;;;;;;;;;;;;;5069501;28;19912;-63
2022/11/10 05:10:11;;;;;;;;;;;;;;;;;;5082937;28;19916;-63
2022/11/10 05:12:36;;;;;;;;;;;;;;;;;;5071218;28;19920;-61
2022/11/10 05:15:01;;;;;;;;;;;;;;;;;;5060637;28;20137;-62
2022/11/10 05:17:27;;;;;;;;;;;;;;;;;;5064085;28;19917;-62
2022/11/10 05:19:52;;;;;;;;;;;;;;;;;;5058119;28;19991;-62
2022/11/10 05:22:17;;;;;;;;;;;;;;;;;;5065209;28;20297;-62
2022/11/10 05:24:42;;;;;;;;;;;;;;;;;;5060863;28;19964;-62
2022/11/10 05:27:07;;;;;;;;;;;;;;;;;;5055056;28;20241;-63
2022/11/10 05:29:32;;;;;;;;;;;;;;;;;;5057405;28;19921;-63
2022/11/10 05:31:57;;;;;;;;;;;;;;;;;;5070251;28;19923;-63
2022/11/10 05:34:22;;;;;;;;;;;;;;;;;;5062141;28;20339;-63
2022/11/10 05:36:48;;;;;;;;;;;;;;;;;;5071394;28;19916;-64
2022/11/10 05:39:13;;;;;;;;;;;;;;;;;;5091298;28;19917;-62
2022/11/10 05:41:38;;;;;;;;;;;;;;;;;;5065162;28;19962;-62
2022/11/10 05:44:03;;;;;;;;;;;;;;;;;;5065833;28;19915;-62
2022/11/10 05:46:30;;;;;;;;;;;;;;;;;;5073250;28;20322;-63
2022/11/10 05:48:55;;;;;;;;;;;;;;;;;;5063141;28;20007;-62
2022/11/10 05:51:20;;;;;;;;;;;;;;;;;;5080106;28;20329;-62
2022/11/10 05:53:45;;;;;;;;;;;;;;;;;;5070800;28;20269;-63
2022/11/10 05:56:10;;;;;;;;;;;;;;;;;;5061936;28;19948;-63
2022/11/10 05:58:36;;;;;;;;;;;;;;;;;;5062173;28;19920;-63
2022/11/10 06:01:01;;;;;;;;;;;;;;;;;;5061517;28;19927;-63
2022/11/10 06:03:26;;;;;;;;;;;;;;;;;;5064066;28;19912;-63
2022/11/10 06:05:52;;;;;;;;;;;;;;;;;;5062206;28;20357;-64
2022/11/10 06:08:17;;;;;;;;;;;;;;;;;;5064141;28;20342;-63
2022/11/10 06:10:42;;;;;;;;;;;;;;;;;;5059386;28;19921;-63
2022/11/10 06:13:07;;;;;;;;;;;;;;;;;;5072440;28;20426;-63
2022/11/10 06:15:32;;;;;;;;;;;;;;;;;;5063056;28;20428;-63
2022/11/10 06:17:57;;;;;;;;;;;;;;;;;;5061659;28;19920;-63
2022/11/10 06:20:23;;;;;;;;;;;;;;;;;;5072336;28;19922;-64
2022/11/10 06:22:48;;;;;;;;;;;;;;;;;;5078830;28;19924;-64
2022/11/10 06:25:13;;;;;;;;;;;;;;;;;;5059863;28;19913;-63
2022/11/10 06:27:38;;;;;;;;;;;;;;;;;;5065462;28;20055;-63
2022/11/10 06:30:03;;;;;;;;;;;;;;;;;;5060337;28;19924;-63
2022/11/10 06:32:28;;;;;;;;;;;;;;;;;;5074059;28;19913;-64
2022/11/10 06:34:53;;;;;;;;;;;;;;;;;;5074553;28;19908;-63
2022/11/10 06:37:19;;;;;;;;;;;;;;;;;;5071327;28;20262;-66
2022/11/10 06:39:45;;;;;;;;;;;;;;;;;;5072111;28;19966;-65
2022/11/10 06:42:10;;;;;;;;;;;;;;;;;;5072150;28;19908;-66
2022/11/10 06:44:35;;;;;;;;;;;;;;;;;;5074558;28;19908;-64
2022/11/10 06:47:00;;;;;;;;;;;;;;;;;;5073436;28;19935;-64
2022/11/10 06:49:25;;;;;;;;;;;;;;;;;;5082900;28;19921;-64
2022/11/10 06:51:50;;;;;;;;;;;;;;;;;;5071656;28;19912;-65
2022/11/10 06:54:16;;;;;;;;;;;;;;;;;;5069461;28;19917;-64
2022/11/10 06:56:41;;;;;;;;;;;;;;;;;;5085147;28;20007;-65
2022/11/10 06:59:06;;;;;;;;;;;;;;;;;;5066636;28;19913;-64
2022/11/10 07:01:31;;;;;;;;;;;;;;;;;;5080120;28;19919;-64
2022/11/10 07:03:56;;;;;;;;;;;;;;;;;;5073274;28;19909;-65
2022/11/10 07:06:21;;;;;;;;;;;;;;;;;;5070894;28;19916;-64
2022/11/10 07:08:47;;;;;;;;;;;;;;;;;;5070977;28;20287;-64
2022/11/10 07:11:12;;;;;;;;;;;;;;;;;;5080195;28;20347;-64
2022/11/10 07:13:37;;;;;;;;;;;;;;;;;;5063167;28;20284;-65
2022/11/10 07:16:02;;;;;;;;;;;;;;;;;;5068803;28;19964;-64
2022/11/10 07:18:27;;;;;;;;;;;;;;;;;;5069250;28;19908;-64
2022/11/10 07:20:52;;;;;;;;;;;;;;;;;;5059793;28;20365;-64
2022/11/10 07:23:18;;;;;;;;;;;;;;;;;;5062992;28;19964;-65
2022/11/10 07:25:43;;;;;;;;;;;;;;;;;;5069252;28;19909;-65
2022/11/10 07:28:11;;;;;;;;;;;;;;;;;;5087411;28;19913;-64
2022/11/10 07:30:36;;;;;;;;;;;;;;;;;;5074832;28;19919;-64
2022/11/10 07:33:01;;;;;;;;;;;;;;;;;;5075942;28;19912;-64
2022/11/10 07:35:27;;;;;;;;;;;;;;;;;;5075480;28;19909;-65
2022/11/10 07:37:52;;;;;;;;;;;;;;;;;;5072327;28;19970;-64
2022/11/10 07:40:17;;;;;;;;;;;;;;;;;;5073024;28;19909;-64
2022/11/10 07:42:42;;;;;;;;;;;;;;;;;;5071275;28;19939;-64
2022/11/10 07:45:08;;;;;;;;;;;;;;;;;;5072400;28;19935;-65
2022/11/10 07:47:33;;;;;;;;;;;;;;;;;;5071935;28;19932;-64
2022/11/10 07:49:58;;;;;;;;;;;;;;;;;;5073215;28;19935;-64
2022/11/10 07:52:23;;;;;;;;;;;;;;;;;;5069519;28;19982;-65
2022/11/10 07:54:48;;;;;;;;;;;;;;;;;;5064085;28;19967;-65
2022/11/10 07:57:13;;;;;;;;;;;;;;;;;;5061182;28;19962;-64
2022/11/10 07:59:38;;;;;;;;;;;;;;;;;;5068650;28;20430;-64
2022/11/10 08:02:04;;;;;;;;;;;;;;;;;;5079291;28;19962;-64
2022/11/10 08:04:29;;;;;;;;;;;;;;;;;;5072556;28;19947;-65
2022/11/10 08:06:54;;;;;;;;;;;;;;;;;;5079655;28;19935;-65
2022/11/10 08:09:19;;;;;;;;;;;;;;;;;;5070259;28;19920;-65
2022/11/10 08:11:44;;;;;;;;;;;;;;;;;;5064820;28;19968;-64
2022/11/10 08:14:09;;;;;;;;;;;;;;;;;;5054736;28;19913;-64
2022/11/10 08:16:35;;;;;;;;;;;;;;;;;;5062470;28;20066;-65
2022/11/10 08:19:00;;;;;;;;;;;;;;;;;;5062312;28;19913;-64
2022/11/10 08:21:25;;;;;;;;;;;;;;;;;;5069766;28;20369;-64
2022/11/10 08:23:50;;;;;;;;;;;;;;;;;;5067371;28;19924;-65
2022/11/10 08:26:16;;;;;;;;;;;;;;;;;;5068426;28;19917;-64
2022/11/10 08:28:41;;;;;;;;;;;;;;;;;;5075795;28;20383;-64
2022/11/10 08:31:06;;;;;;;;;;;;;;;;;;5091577;28;19912;-64
2022/11/10 08:33:32;;;;;;;;;;;;;;;;;;5071462;28;19913;-63
2022/11/10 08:35:57;;;;;;;;;;;;;;;;;;5075700;28;19913;-64
2022/11/10 08:38:22;;;;;;;;;;;;;;;;;;5070306;28;20348;-64
2022/11/10 08:40:47;;;;;;;;;;;;;;;;;;5068357;28;20338;-64
2022/11/10 08:43:12;;;;;;;;;;;;;;;;;;5063091;28;19958;-64
2022/11/10 08:45:37;;;;;;;;;;;;;;;;;;5061582;28;19970;-64
2022/11/10 08:48:03;;;;;;;;;;;;;;;;;;5072206;28;19958;-64
2022/11/10 08:50:28;;;;;;;;;;;;;;;;;;5069999;28;19939;-64
2022/11/10 08:52:53;;;;;;;;;;;;;;;;;;5102099;28;19913;-63
2022/11/10 08:55:19;;;;;;;;;;;;;;;;;;5069171;28;19917;-65
2022/11/10 08:57:44;;;;;;;;;;;;;;;;;;5069271;28;19912;-64
2022/11/10 09:00:09;;;;;;;;;;;;;;;;;;5069009;28;19991;-65
2022/11/10 09:02:34;;;;;;;;;;;;;;;;;;5069411;28;19913;-64
2022/11/10 09:04:59;;;;;;;;;;;;;;;;;;5071420;28;20012;-64
2022/11/10 09:07:24;;;;;;;;;;;;;;;;;;5067720;28;19974;-64
2022/11/10 09:09:49;;;;;;;;;;;;;;;;;;5074726;28;19959;-64
2022/11/10 09:12:14;;;;;;;;;;;;;;;;;;5072972;28;19917;-64
2022/11/10 09:14:40;;;;;;;;;;;;;;;;;;5078267;28;19962;-64
2022/11/10 09:17:05;;;;;;;;;;;;;;;;;;5060510;28;19920;-65
2022/11/10 09:19:30;;;;;;;;;;;;;;;;;;5055347;28;20278;-65
2022/11/10 09:21:55;;;;;;;;;;;;;;;;;;5066247;28;20027;-65
2022/11/10 09:24:20;;;;;;;;;;;;;;;;;;5061526;28;19969;-65
2022/11/10 09:26:46;;;;;;;;;;;;;;;;;;5074058;28;20143;-64
2022/11/10 09:29:12;;;;;;;;;;;;;;;;;;5067117;28;20364;-63
2022/11/10 09:31:37;;;;;;;;;;;;;;;;;;5070787;28;19958;-63
2022/11/10 09:34:03;;;;;;;;;;;;;;;;;;5078438;28;20414;-63
2022/11/10 09:36:28;;;;;;;;;;;;;;;;;;5077983;28;19960;-64
2022/11/10 09:38:53;;;;;;;;;;;;;;;;;;5073137;28;19970;-64
2022/11/10 09:41:18;;;;;;;;;;;;;;;;;;5075291;28;19992;-64
2022/11/10 09:43:44;;;;;;;;;;;;;;;;;;5063362;28;19952;-64
2022/11/10 09:46:09;;;;;;;;;;;;;;;;;;5074010;28;19931;-64
2022/11/10 09:48:34;;;;;;;;;;;;;;;;;;5080471;28;19912;-65
2022/11/10 09:50:59;;;;;;;;;;;;;;;;;;5072456;28;20003;-64
2022/11/10 09:53:24;;;;;;;;;;;;;;;;;;5071787;28;19916;-64
2022/11/10 09:55:49;;;;;;;;;;;;;;;;;;5075462;28;19955;-64
2022/11/10 09:58:15;;;;;;;;;;;;;;;;;;5077004;28;20331;-64
2022/11/10 10:00:40;;;;;;;;;;;;;;;;;;5062334;28;20488;-65
2022/11/10 10:03:05;;;;;;;;;;;;;;;;;;5085004;28;20007;-64
2022/11/10 10:05:30;;;;;;;;;;;;;;;;;;5083685;28;19916;-64
2022/11/10 10:07:55;;;;;;;;;;;;;;;;;;5086911;28;20657;-64
2022/11/10 10:10:20;;;;;;;;;;;;;;;;;;5070330;28;20331;-65
2022/11/10 10:12:45;;;;;;;;;;;;;;;;;;5071563;28;20300;-64
2022/11/10 10:15:11;;;;;;;;;;;;;;;;;;5061447;28;19948;-65
2022/11/10 10:17:36;;;;;;;;;;;;;;;;;;5067499;28;19917;-65
2022/11/10 10:20:01;;;;;;;;;;;;;;;;;;5072434;28;20304;-65
2022/11/10 10:22:26;;;;;;;;;;;;;;;;;;5077546;28;20288;-64
2022/11/10 10:24:52;;;;;;;;;;;;;;;;;;5057008;28;19983;-64
2022/11/10 10:27:17;;;;;;;;;;;;;;;;;;5070412;28;19912;-65
2022/11/10 10:29:42;;;;;;;;;;;;;;;;;;5069676;28;19970;-65
2022/11/10 10:32:07;;;;;;;;;;;;;;;;;;5065664;28;19966;-65
2022/11/10 10:34:33;;;;;;;;;;;;;;;;;;5063263;28;20431;-65
2022/11/10 10:36:58;;;;;;;;;;;;;;;;;;5069394;28;20356;-65
2022/11/10 10:39:23;;;;;;;;;;;;;;;;;;5064547;28;19923;-64
2022/11/10 10:41:48;;;;;;;;;;;;;;;;;;5064379;28;19935;-64
2022/11/10 10:44:13;;;;;;;;;;;;;;;;;;5067474;28;20003;-64
2022/11/10 10:46:39;;;;;;;;;;;;;;;;;;5086983;28;19935;-65
2022/11/10 10:49:04;;;;;;;;;;;;;;;;;;5059516;28;19942;-64
2022/11/10 10:51:29;;;;;;;;;;;;;;;;;;5057646;28;20034;-65
2022/11/10 10:53:54;;;;;;;;;;;;;;;;;;5069027;28;19958;-64
2022/11/10 10:56:20;;;;;;;;;;;;;;;;;;5085918;28;19966;-64
2022/11/10 10:58:45;;;;;;;;;;;;;;;;;;5073157;28;19912;-65
2022/11/10 11:01:10;;;;;;;;;;;;;;;;;;5079619;28;19915;-65
2022/11/10 11:03:35;;;;;;;;;;;;;;;;;;5068543;28;19931;-65
2022/11/10 11:06:00;;;;;;;;;;;;;;;;;;5060676;28;19923;-64
2022/11/10 11:08:26;;;;;;;;;;;;;;;;;;5084932;28;19934;-64
2022/11/10 11:10:51;;;;;;;;;;;;;;;;;;5071765;28;19970;-64
2022/11/10 11:13:16;;;;;;;;;;;;;;;;;;5057299;28;19921;-64
2022/11/10 11:15:41;;;;;;;;;;;;;;;;;;5078898;28;19943;-64
2022/11/10 11:18:06;;;;;;;;;;;;;;;;;;5069510;28;19919;-64
2022/11/10 11:20:32;;;;;;;;;;;;;;;;;;5067971;28;20369;-63
2022/11/10 11:22:57;;;;;;;;;;;;;;;;;;5072811;28;19920;-64
2022/11/10 11:25:22;;;;;;;;;;;;;;;;;;5093517;28;19962;-63
2022/11/10 11:27:48;;;;;;;;;;;;;;;;;;5073769;28;19912;-64
2022/11/10 11:30:13;;;;;;;;;;;;;;;;;;5082746;28;19916;-65
2022/11/10 11:32:38;;;;;;;;;;;;;;;;;;5082846;28;19916;-64
2022/11/10 11:35:03;;;;;;;;;;;;;;;;;;5060939;28;19912;-64
2022/11/10 11:37:28;;;;;;;;;;;;;;;;;;5068940;28;20353;-64
2022/11/10 11:39:53;;;;;;;;;;;;;;;;;;5071040;28;19916;-64
2022/11/10 11:42:18;;;;;;;;;;;;;;;;;;5103182;28;19939;-64
2022/11/10 11:44:44;;;;;;;;;;;;;;;;;;5092819;28;19908;-64
2022/11/10 11:47:09;;;;;;;;;;;;;;;;;;5091959;28;19908;-64
2022/11/10 11:49:34;;;;;;;;;;;;;;;;;;5055971;28;20007;-65
2022/11/10 11:51:59;;;;;;;;;;;;;;;;;;5054728;28;19909;-64
2022/11/10 11:54:24;;;;;;;;;;;;;;;;;;5079777;28;20064;-63
2022/11/10 11:56:49;;;;;;;;;;;;;;;;;;5084939;28;20066;-64
2022/11/10 11:59:14;;;;;;;;;;;;;;;;;;5069150;28;20336;-64
2022/11/10 12:01:39;;;;;;;;;;;;;;;;;;5071281;28;19965;-64
2022/11/10 12:04:05;;;;;;;;;;;;;;;;;;5080497;28;19924;-64
2022/11/10 12:06:30;;;;;;;;;;;;;;;;;;5062628;28;19912;-64
2022/11/10 12:08:55;;;;;;;;;;;;;;;;;;5067491;28;20017;-63
2022/11/10 12:11:20;;;;;;;;;;;;;;;;;;5085065;28;19912;-65
2022/11/10 12:13:45;;;;;;;;;;;;;;;;;;5070642;28;19913;-64
2022/11/10 12:16:10;;;;;;;;;;;;;;;;;;5069426;28;19952;-64
2022/11/10 12:18:36;;;;;;;;;;;;;;;;;;5072556;28;19909;-64
2022/11/10 12:21:01;;;;;;;;;;;;;;;;;;5068254;28;19916;-64
2022/11/10 12:23:26;;;;;;;;;;;;;;;;;;5072342;28;20365;-64
2022/11/10 12:25:51;;;;;;;;;;;;;;;;;;5070560;28;19974;-63
2022/11/10 12:28:17;;;;;;;;;;;;;;;;;;5070609;28;19912;-64
2022/11/10 12:30:42;;;;;;;;;;;;;;;;;;5069201;28;19953;-65
2022/11/10 12:33:07;;;;;;;;;;;;;;;;;;5070360;28;20308;-63
2022/11/10 12:35:32;;;;;;;;;;;;;;;;;;5068047;28;20419;-64
2022/11/10 12:37:57;;;;;;;;;;;;;;;;;;5066638;28;19935;-64
2022/11/10 12:40:22;;;;;;;;;;;;;;;;;;5062544;28;20414;-64
2022/11/10 12:42:48;;;;;;;;;;;;;;;;;;5074429;28;20372;-64
2022/11/10 12:45:13;;;;;;;;;;;;;;;;;;5087615;28;19912;-64
2022/11/10 12:47:38;;;;;;;;;;;;;;;;;;5065558;28;19912;-65
2022/11/10 12:50:03;;;;;;;;;;;;;;;;;;5083042;28;19973;-64
2022/11/10 12:52:28;;;;;;;;;;;;;;;;;;5070011;28;19913;-65
2022/11/10 12:54:53;;;;;;;;;;;;;;;;;;5071295;28;19928;-64
2022/11/10 12:57:18;;;;;;;;;;;;;;;;;;5063448;28;20015;-65
2022/11/10 12:59:43;;;;;;;;;;;;;;;;;;5070797;28;20284;-64
2022/11/10 13:02:09;;;;;;;;;;;;;;;;;;5082362;28;19908;-64
2022/11/10 13:04:34;;;;;;;;;;;;;;;;;;5092219;28;19912;-64
2022/11/10 13:06:59;;;;;;;;;;;;;;;;;;5076836;28;20322;-64
2022/11/10 13:09:24;;;;;;;;;;;;;;;;;;5084084;28;20357;-64
2022/11/10 13:11:49;;;;;;;;;;;;;;;;;;5065840;28;19919;-64
2022/11/10 13:14:14;;;;;;;;;;;;;;;;;;5085701;28;19963;-63
2022/11/10 13:16:39;;;;;;;;;;;;;;;;;;5081989;28;19938;-64
2022/11/10 13:19:05;;;;;;;;;;;;;;;;;;5071980;28;20315;-63
2022/11/10 13:21:30;;;;;;;;;;;;;;;;;;5065198;28;19921;-64
2022/11/10 13:23:55;;;;;;;;;;;;;;;;;;5075220;28;19915;-64
2022/11/10 13:26:20;;;;;;;;;;;;;;;;;;5089811;28;19915;-64
2022/11/10 13:28:48;;;;;;;;;;;;;;;;;;5064716;28;19939;-64
2022/11/10 13:31:13;;;;;;;;;;;;;;;;;;5079341;28;19965;-64
2022/11/10 13:33:38;;;;;;;;;;;;;;;;;;5072870;28;20015;-64
2022/11/10 13:36:03;;;;;;;;;;;;;;;;;;5078174;28;19912;-62
2022/11/10 13:38:29;;;;;;;;;;;;;;;;;;5075355;28;20368;-64
2022/11/10 13:40:54;;;;;;;;;;;;;;;;;;5076263;28;20356;-64
2022/11/10 13:43:19;;;;;;;;;;;;;;;;;;5085492;28;20395;-64
2022/11/10 13:45:44;;;;;;;;;;;;;;;;;;5071403;28;19915;-64
2022/11/10 13:48:09;;;;;;;;;;;;;;;;;;5074843;28;19952;-65
2022/11/10 13:50:34;;;;;;;;;;;;;;;;;;5071754;28;20210;-65
2022/11/10 13:52:59;;;;;;;;;;;;;;;;;;5071728;28;20353;-65
2022/11/10 13:55:25;;;;;;;;;;;;;;;;;;5071751;28;19908;-65
2022/11/10 13:57:50;;;;;;;;;;;;;;;;;;5070269;28;19913;-64
2022/11/10 14:00:16;;;;;;;;;;;;;;;;;;5069374;28;20423;-63
2022/11/10 14:02:41;;;;;;;;;;;;;;;;;;5071110;28;20377;-63
2022/11/10 14:05:06;;;;;;;;;;;;;;;;;;5073806;28;19919;-63
2022/11/10 14:07:31;;;;;;;;;;;;;;;;;;5076237;28;19912;-64
2022/11/10 14:09:56;;;;;;;;;;;;;;;;;;5068842;28;19921;-63
2022/11/10 14:12:21;;;;;;;;;;;;;;;;;;5067816;28;20042;-65
2022/11/10 14:14:46;;;;;;;;;;;;;;;;;;5094334;28;19927;-64
2022/11/10 14:17:12;;;;;;;;;;;;;;;;;;5071861;28;19921;-64
2022/11/10 14:19:37;;;;;;;;;;;;;;;;;;5067648;28;20386;-64
2022/11/10 14:22:02;;;;;;;;;;;;;;;;;;5065632;28;20398;-65
2022/11/10 14:24:27;;;;;;;;;;;;;;;;;;5069749;28;20250;-64
2022/11/10 14:26:52;;;;;;;;;;;;;;;;;;5058219;28;20384;-65
2022/11/10 14:29:20;;;;;;;;;;;;;;;;;;5064965;28;19917;-64
2022/11/10 14:31:45;;;;;;;;;;;;;;;;;;5060670;28;19959;-64
2022/11/10 14:34:10;;;;;;;;;;;;;;;;;;5055003;28;19948;-65
2022/11/10 14:36:36;;;;;;;;;;;;;;;;;;5064155;28;19913;-64
2022/11/10 14:39:01;;;;;;;;;;;;;;;;;;5067327;28;19913;-64
2022/11/10 14:41:26;;;;;;;;;;;;;;;;;;5096568;28;19913;-63
2022/11/10 14:43:51;;;;;;;;;;;;;;;;;;5054051;28;19939;-65
2022/11/10 14:46:16;;;;;;;;;;;;;;;;;;5073175;28;20418;-64
2022/11/10 14:48:41;;;;;;;;;;;;;;;;;;5074236;28;19970;-64
2022/11/10 14:51:07;;;;;;;;;;;;;;;;;;5059428;28;20003;-64
2022/11/10 14:53:32;;;;;;;;;;;;;;;;;;5065430;28;19919;-65
2022/11/10 14:55:57;;;;;;;;;;;;;;;;;;5069775;28;19909;-64
2022/11/10 14:58:22;;;;;;;;;;;;;;;;;;5057341;28;19913;-63
2022/11/10 15:00:47;;;;;;;;;;;;;;;;;;5059178;28;19913;-64
2022/11/10 15:03:12;;;;;;;;;;;;;;;;;;5067939;28;20015;-63
2022/11/10 15:05:37;;;;;;;;;;;;;;;;;;5063408;28;19927;-64
2022/11/10 15:08:03;;;;;;;;;;;;;;;;;;5066106;28;19931;-63
2022/11/10 15:10:28;;;;;;;;;;;;;;;;;;5062714;28;20373;-63
2022/11/10 15:12:53;;;;;;;;;;;;;;;;;;5061304;28;19908;-64
2022/11/10 15:15:18;;;;;;;;;;;;;;;;;;5066440;28;19912;-64
2022/11/10 15:17:44;;;;;;;;;;;;;;;;;;5067027;28;19953;-63
2022/11/10 15:20:10;;;;;;;;;;;;;;;;;;5069301;28;19942;-64
2022/11/10 15:22:35;;;;;;;;;;;;;;;;;;5057808;28;19959;-63
2022/11/10 15:25:00;;;;;;;;;;;;;;;;;;5063534;28;19913;-64
2022/11/10 15:27:25;;;;;;;;;;;;;;;;;;5051971;28;19921;-63
2022/11/10 15:29:52;;;;;;;;;;;;;;;;;;5060952;28;21466;-64
2022/11/10 15:32:19;;;;;;;;;;;;;;;;;;5064445;28;19912;-64
2022/11/10 15:34:44;;;;;;;;;;;;;;;;;;5056570;28;19916;-64
2022/11/10 15:37:09;;;;;;;;;;;;;;;;;;5060599;28;19961;-64
2022/11/10 15:39:34;;;;;;;;;;;;;;;;;;5072661;28;19921;-64
2022/11/10 15:41:59;;;;;;;;;;;;;;;;;;5067488;28;20395;-63
2022/11/10 15:44:25;;;;;;;;;;;;;;;;;;5069645;28;19966;-64
2022/11/10 15:46:50;;;;;;;;;;;;;;;;;;5068525;28;19936;-65
2022/11/10 15:49:15;;;;;;;;;;;;;;;;;;5066197;28;19963;-64
2022/11/10 15:51:40;;;;;;;;;;;;;;;;;;5072369;28;19912;-64
2022/11/10 15:54:05;;;;;;;;;;;;;;;;;;5068805;28;20431;-63
2022/11/10 15:56:30;;;;;;;;;;;;;;;;;;5055356;28;19995;-64
2022/11/10 15:58:57;;;;;;;;;;;;;;;;;;5073998;28;19962;-64
2022/11/10 16:01:22;;;;;;;;;;;;;;;;;;5072163;28;19970;-64
2022/11/10 16:03:48;;;;;;;;;;;;;;;;;;5080658;28;20368;-64
2022/11/10 16:06:13;;;;;;;;;;;;;;;;;;5072954;28;19940;-65
2022/11/10 16:08:38;;;;;;;;;;;;;;;;;;5067029;28;19913;-64
2022/11/10 16:11:03;;;;;;;;;;;;;;;;;;5072998;28;19924;-65
2022/11/10 16:13:28;;;;;;;;;;;;;;;;;;5063896;28;19965;-65
2022/11/10 16:15:53;;;;;;;;;;;;;;;;;;5059145;28;20430;-65
2022/11/10 16:18:19;;;;;;;;;;;;;;;;;;5073278;28;20361;-65
2022/11/10 16:20:44;;;;;;;;;;;;;;;;;;5075995;28;20315;-65
2022/11/10 16:23:09;;;;;;;;;;;;;;;;;;5073870;28;19963;-65
2022/11/10 16:25:34;;;;;;;;;;;;;;;;;;5062801;28;19921;-65
2022/11/10 16:28:02;;;;;;;;;;;;;;;;;;5056438;28;20408;-65
2022/11/10 16:30:27;;;;;;;;;;;;;;;;;;5060442;28;19920;-64
2022/11/10 16:32:53;;;;;;;;;;;;;;;;;;5061335;28;19909;-66
2022/11/10 16:35:19;;;;;;;;;;;;;;;;;;5067056;28;19912;-67
2022/11/10 16:37:44;;;;;;;;;;;;;;;;;;5062320;28;20391;-68
2022/11/10 16:40:09;;;;;;;;;;;;;;;;;;5075488;28;20320;-72
2022/11/10 16:42:34;;;;;;;;;;;;;;;;;;5056668;28;19913;-78